createdAt,value
2023-04-19T00:01:32.772Z,4.92
2023-04-19T00:03:59.921Z,4.82
2023-04-19T00:06:30.674Z,4.92
2023-04-19T00:08:57.757Z,4.93
2023-04-19T00:11:24.878Z,4.92
2023-04-19T00:13:51.959Z,4.92
2023-04-19T00:16:18.952Z,4.92
2023-04-19T00:18:46.813Z,4.93
2023-04-19T00:21:13.864Z,4.93
2023-04-19T00:23:40.937Z,4.91
2023-04-19T00:26:07.913Z,4.88
2023-04-19T00:28:35.418Z,4.94
2023-04-19T00:31:02.378Z,4.55
2023-04-19T00:33:31.329Z,4.96
2023-04-19T00:35:58.430Z,4.96
2023-04-19T00:38:25.567Z,4.76
2023-04-19T00:40:52.622Z,4.89
2023-04-19T00:43:20.204Z,4.86
2023-04-19T00:45:49.486Z,4.88
2023-04-19T00:48:16.972Z,4.76
2023-04-19T00:50:46.232Z,4.88
2023-04-19T00:53:13.368Z,4.87
2023-04-19T00:55:40.521Z,4.84
2023-04-19T00:58:08.862Z,4.82
2023-04-19T01:00:37.013Z,4.50
2023-04-19T01:03:04.348Z,4.81
2023-04-19T01:05:31.651Z,4.82
2023-04-19T01:07:58.622Z,4.84
2023-04-19T01:10:27.078Z,4.39
2023-04-19T01:12:54.088Z,4.84
2023-04-19T01:15:21.205Z,4.83
2023-04-19T01:17:49.892Z,4.81
2023-04-19T01:20:16.846Z,4.80
2023-04-19T01:22:44.617Z,4.77
2023-04-19T01:25:11.764Z,4.75
2023-04-19T01:27:38.824Z,4.70
2023-04-19T01:30:06.637Z,4.29
2023-04-19T01:32:33.698Z,4.69
2023-04-19T01:35:00.871Z,4.66
2023-04-19T01:37:30.343Z,4.63
2023-04-19T01:39:57.480Z,4.61
2023-04-19T01:42:24.823Z,4.58
2023-04-19T01:44:52.712Z,4.54
2023-04-19T01:47:19.852Z,4.31
2023-04-19T01:49:47.099Z,4.41
2023-04-19T01:52:15.865Z,4.38
2023-04-19T01:54:42.852Z,4.36
2023-04-19T01:57:09.878Z,4.34
2023-04-19T01:59:36.750Z,4.30
2023-04-19T02:02:07.168Z,4.31
2023-04-19T02:04:34.927Z,4.28
2023-04-19T02:07:01.847Z,4.26
2023-04-19T02:09:29.403Z,4.20
2023-04-19T02:11:56.351Z,4.11
2023-04-19T02:14:23.191Z,4.17
2023-04-19T02:16:50.265Z,4.18
2023-04-19T02:19:18.131Z,4.14
2023-04-19T02:21:45.011Z,4.12
2023-04-19T02:24:14.628Z,4.10
2023-04-19T02:26:42.599Z,3.88
2023-04-19T02:29:09.955Z,4.03
2023-04-19T02:31:38.671Z,4.01
2023-04-19T02:34:09.515Z,3.98
2023-04-19T02:36:36.521Z,3.92
2023-04-19T02:39:05.586Z,3.90
2023-04-19T02:41:32.760Z,3.86
2023-04-19T02:44:02.247Z,3.79
2023-04-19T02:46:29.323Z,3.75
2023-04-19T02:48:56.575Z,3.77
2023-04-19T02:51:23.572Z,3.74
2023-04-19T02:53:50.614Z,3.71
2023-04-19T02:56:17.717Z,3.58
2023-04-19T02:58:45.593Z,3.66
2023-04-19T03:01:12.693Z,3.63
2023-04-19T03:03:39.768Z,3.61
2023-04-19T03:06:07.142Z,3.49
2023-04-19T03:08:34.218Z,3.49
2023-04-19T03:11:01.256Z,3.51
2023-04-19T03:13:30.579Z,3.49
2023-04-19T03:15:57.594Z,3.46
2023-04-19T03:18:25.068Z,3.44
2023-04-19T03:20:55.224Z,3.38
2023-04-19T03:23:22.353Z,3.27
2023-04-19T03:25:51.290Z,3.13
2023-04-19T03:28:32.914Z,3.13
2023-04-19T03:31:35.498Z,3.27
2023-04-19T03:34:03.976Z,3.06
2023-04-19T03:36:40.459Z,3.23
2023-04-19T03:39:08.157Z,3.22
2023-04-19T03:41:37.072Z,3.19
2023-04-19T03:44:22.657Z,3.00
2023-04-19T03:46:49.674Z,3.15
2023-04-19T03:49:21.389Z,3.13
2023-04-19T03:51:54.188Z,3.09
2023-04-19T03:54:21.126Z,3.11
2023-04-19T03:56:48.102Z,3.08
2023-04-19T03:59:15.798Z,3.08
2023-04-19T04:01:43.379Z,3.02
2023-04-19T04:04:11.956Z,3.03
2023-04-19T04:06:39.835Z,2.95
2023-04-19T04:09:07.712Z,3.00
2023-04-19T04:11:35.232Z,2.92
2023-04-19T04:14:02.549Z,3.00
2023-04-19T04:16:35.279Z,3.00
2023-04-19T04:19:02.342Z,3.00
2023-04-19T04:21:32.302Z,3.04
2023-04-19T04:24:02.123Z,3.03
2023-04-19T04:27:04.783Z,3.03
2023-04-19T04:29:34.722Z,3.05
2023-04-19T04:32:08.360Z,3.06
2023-04-19T04:34:38.686Z,3.07
2023-04-19T04:37:10.625Z,2.98
2023-04-19T04:39:39.885Z,3.01
2023-04-19T04:42:09.197Z,2.93
2023-04-19T04:44:37.452Z,3.05
2023-04-19T04:47:05.341Z,3.09
2023-04-19T04:49:38.496Z,3.06
2023-04-19T04:52:06.533Z,3.07
2023-04-19T04:54:39.367Z,3.12
2023-04-19T04:57:15.904Z,3.12
2023-04-19T04:59:43.204Z,3.10
2023-04-19T05:02:11.006Z,3.07
2023-04-19T05:04:39.218Z,3.19
2023-04-19T05:07:06.436Z,3.14
2023-04-19T05:09:33.384Z,3.21
2023-04-19T05:12:01.818Z,3.25
2023-04-19T05:14:29.929Z,3.30
2023-04-19T05:16:56.852Z,3.33
2023-04-19T05:19:23.913Z,3.30
2023-04-19T05:21:57.320Z,3.38
2023-04-19T05:24:24.321Z,3.40
2023-04-19T05:26:51.867Z,3.43
2023-04-19T05:29:18.871Z,3.47
2023-04-19T05:31:48.985Z,3.50
2023-04-19T05:34:22.068Z,3.42
2023-04-19T05:36:49.734Z,3.57
2023-04-19T05:39:17.362Z,3.60
2023-04-19T05:41:44.500Z,3.46
2023-04-19T05:44:11.650Z,3.63
2023-04-19T05:46:38.659Z,3.71
2023-04-19T05:49:08.533Z,3.71
2023-04-19T05:52:04.989Z,3.79
2023-04-19T05:54:47.461Z,3.85
2023-04-19T05:57:14.555Z,3.89
2023-04-19T05:59:42.579Z,3.93
2023-04-19T06:02:10.976Z,3.99
2023-04-19T06:04:38.391Z,4.03
2023-04-19T06:07:10.531Z,3.99
2023-04-19T06:09:44.910Z,4.11
2023-04-19T06:12:11.947Z,4.15
2023-04-19T06:14:38.821Z,4.20
2023-04-19T06:17:06.206Z,4.24
2023-04-19T06:19:34.046Z,4.08
2023-04-19T06:22:01.564Z,4.35
2023-04-19T06:24:28.850Z,4.31
2023-04-19T06:26:56.892Z,4.44
2023-04-19T06:29:24.204Z,4.50
2023-04-19T06:31:51.552Z,4.40
2023-04-19T06:34:18.922Z,4.60
2023-04-19T06:36:46.189Z,3.97
2023-04-19T06:39:13.274Z,4.73
2023-04-19T06:41:40.178Z,4.82
2023-04-19T06:44:07.369Z,4.90
2023-04-19T06:46:34.367Z,4.97
2023-04-19T06:49:01.183Z,4.62
2023-04-19T06:51:28.141Z,5.09
2023-04-19T06:53:55.367Z,5.18
2023-04-19T06:56:47.749Z,5.27
2023-04-19T06:59:19.968Z,5.33
2023-04-19T07:01:48.223Z,5.47
2023-04-19T07:04:16.137Z,5.51
2023-04-19T07:06:43.647Z,5.65
2023-04-19T07:09:10.681Z,5.68
2023-04-19T07:11:37.584Z,5.66
2023-04-19T07:14:04.535Z,5.87
2023-04-19T07:16:31.617Z,5.95
2023-04-19T07:18:58.690Z,5.95
2023-04-19T07:21:28.795Z,6.11
2023-04-19T07:23:55.809Z,6.19
2023-04-19T07:26:22.632Z,6.27
2023-04-19T07:28:50.457Z,6.26
2023-04-19T07:31:18.597Z,6.43
2023-04-19T07:33:45.983Z,6.51
2023-04-19T07:36:13.918Z,6.59
2023-04-19T07:38:40.765Z,6.68
2023-04-19T07:41:07.720Z,6.77
2023-04-19T07:43:35.155Z,6.34
2023-04-19T07:46:02.556Z,6.94
2023-04-19T07:48:29.728Z,7.04
2023-04-19T07:50:56.726Z,7.14
2023-04-19T07:53:23.597Z,7.25
2023-04-19T07:55:50.453Z,7.30
2023-04-19T07:58:17.561Z,7.44
2023-04-19T08:00:44.437Z,7.54
2023-04-19T08:03:11.595Z,7.63
2023-04-19T08:05:39.305Z,7.73
2023-04-19T08:08:06.300Z,7.83
2023-04-19T08:10:33.586Z,7.88
2023-04-19T08:13:05.207Z,7.83
2023-04-19T08:18:05.294Z,8.21
2023-04-19T08:20:32.848Z,8.30
2023-04-19T08:23:07.225Z,8.40
2023-04-19T08:25:35.207Z,8.51
2023-04-19T08:28:02.377Z,8.60
2023-04-19T08:30:29.233Z,8.73
2023-04-19T08:32:57.450Z,8.83
2023-04-19T08:35:25.394Z,8.92
2023-04-19T08:37:52.653Z,9.03
2023-04-19T08:40:19.717Z,9.13
2023-04-19T08:42:46.618Z,9.15
2023-04-19T08:45:27.581Z,9.31
2023-04-19T08:48:01.516Z,9.40
2023-04-19T08:53:08.540Z,9.61
2023-04-19T08:56:06.780Z,9.65
2023-04-19T08:58:54.932Z,9.83
2023-04-19T09:01:34.731Z,9.92
2023-04-19T09:04:21.688Z,10.03
2023-04-19T09:06:55.731Z,10.12
2023-04-19T09:11:58.273Z,10.29
2023-04-19T09:14:26.695Z,10.17
2023-04-19T09:16:53.911Z,10.43
2023-04-19T09:19:24.822Z,10.48
2023-04-19T09:21:54.714Z,10.50
2023-04-19T09:25:13.809Z,10.63
2023-04-19T09:27:27.938Z,10.72
2023-04-19T09:29:56.963Z,10.79
2023-04-19T09:32:24.406Z,10.88
2023-04-19T09:34:59.144Z,10.99
2023-04-19T09:37:51.433Z,11.09
2023-04-19T09:40:27.066Z,11.27
2023-04-19T09:43:08.835Z,11.42
2023-04-19T09:45:47.341Z,11.62
2023-04-19T09:48:14.399Z,11.78
2023-04-19T09:51:02.331Z,11.93
2023-04-19T09:53:34.644Z,12.07
2023-04-19T09:56:04.159Z,12.25
2023-04-19T09:58:42.501Z,12.00
2023-04-19T10:01:16.256Z,12.52
2023-04-19T10:03:49.939Z,12.62
2023-04-19T10:08:50.388Z,12.58
2023-04-19T10:11:19.900Z,12.94
2023-04-19T10:13:49.051Z,13.04
2023-04-19T10:16:20.004Z,13.16
2023-04-19T10:18:50.314Z,13.26
2023-04-19T10:21:19.353Z,13.26
2023-04-19T10:23:47.196Z,13.46
2023-04-19T10:26:14.242Z,13.54
2023-04-19T10:28:42.492Z,13.44
2023-04-19T10:31:16.269Z,13.76
2023-04-19T10:33:43.439Z,13.82
2023-04-19T10:36:15.071Z,14.00
2023-04-19T10:38:48.276Z,13.67
2023-04-19T10:41:18.305Z,14.22
2023-04-19T10:44:09.483Z,14.33
2023-04-19T10:46:38.651Z,14.35
2023-04-19T10:49:07.888Z,14.27
2023-04-19T10:51:42.447Z,14.46
2023-04-19T10:54:27.533Z,14.45
2023-04-19T10:57:00.626Z,14.47
2023-04-19T10:59:29.964Z,14.52
2023-04-19T11:01:59.697Z,14.62
2023-04-19T11:04:30.794Z,14.76
2023-04-19T11:07:06.276Z,14.92
2023-04-19T11:09:39.178Z,15.03
2023-04-19T11:12:09.905Z,15.09
2023-04-19T11:14:45.432Z,15.10
2023-04-19T11:17:27.854Z,15.11
2023-04-19T11:19:57.014Z,14.85
2023-04-19T11:22:27.017Z,15.22
2023-04-19T11:24:53.902Z,15.27
2023-04-19T11:27:21.617Z,15.25
2023-04-19T11:29:48.574Z,15.38
2023-04-19T11:32:15.634Z,15.48
2023-04-19T11:34:42.748Z,15.56
2023-04-19T11:37:11.030Z,15.69
2023-04-19T11:39:46.644Z,15.75
2023-04-19T11:42:18.433Z,15.89
2023-04-19T11:44:52.622Z,15.96
2023-04-19T11:47:39.778Z,16.10
2023-04-19T11:50:55.918Z,16.26
2023-04-19T11:53:44.127Z,16.23
2023-04-19T11:56:31.148Z,16.52
2023-04-19T11:59:18.319Z,16.61
2023-04-19T12:02:05.776Z,16.74
2023-04-19T12:04:52.929Z,16.86
2023-04-19T12:07:40.215Z,16.97
2023-04-19T12:10:32.293Z,17.11
2023-04-19T12:13:19.476Z,17.22
2023-04-19T12:16:06.956Z,17.34
2023-04-19T12:19:06.326Z,17.46
2023-04-19T12:21:53.184Z,17.48
2023-04-19T12:24:40.222Z,17.68
2023-04-19T12:27:27.959Z,17.72
2023-04-19T12:30:14.960Z,17.80
2023-04-19T12:33:02.020Z,17.84
2023-04-19T12:35:49.240Z,17.86
2023-04-19T12:38:36.023Z,17.87
2023-04-19T12:41:22.946Z,17.87
2023-04-19T12:44:09.842Z,17.96
2023-04-19T12:46:56.857Z,18.00
2023-04-19T12:49:43.709Z,18.02
2023-04-19T12:52:30.938Z,18.04
2023-04-19T12:55:17.794Z,18.09
2023-04-19T12:58:04.898Z,18.07
2023-04-19T13:00:51.776Z,18.01
2023-04-19T13:03:39.024Z,18.02
2023-04-19T13:06:26.307Z,18.04
2023-04-19T13:09:14.874Z,18.05
2023-04-19T13:12:02.366Z,18.04
2023-04-19T13:14:49.506Z,18.04
2023-04-19T13:17:36.723Z,18.02
2023-04-19T13:20:24.256Z,18.00
2023-04-19T13:23:11.167Z,17.95
2023-04-19T13:25:58.386Z,17.91
2023-04-19T13:28:45.321Z,17.89
2023-04-19T13:31:32.522Z,17.80
2023-04-19T13:34:19.537Z,17.77
2023-04-19T13:37:06.978Z,17.65
2023-04-19T13:40:03.984Z,17.56
2023-04-19T13:42:57.973Z,17.42
2023-04-19T13:45:44.979Z,17.41
2023-04-19T13:48:32.026Z,17.36
2023-04-19T13:51:19.678Z,17.33
2023-04-19T13:54:06.890Z,17.33
2023-04-19T13:56:53.810Z,17.33
2023-04-19T13:59:41.142Z,17.14
2023-04-19T14:02:28.750Z,17.26
2023-04-19T14:05:15.822Z,17.07
2023-04-19T14:08:02.725Z,17.18
2023-04-19T14:10:49.755Z,17.13
2023-04-19T14:13:37.030Z,17.07
2023-04-19T14:16:24.561Z,17.02
2023-04-19T14:19:11.621Z,16.93
2023-04-19T14:21:58.805Z,16.81
2023-04-19T14:24:45.766Z,16.70
2023-04-19T14:27:32.809Z,16.61
2023-04-19T14:30:19.665Z,16.48
2023-04-19T14:33:06.683Z,15.86
2023-04-19T14:35:53.495Z,16.29
2023-04-19T14:38:40.490Z,16.04
2023-04-19T14:41:27.285Z,16.23
2023-04-19T14:44:14.638Z,16.20
2023-04-19T14:47:01.475Z,16.12
2023-04-19T14:49:48.644Z,16.12
2023-04-19T14:52:35.668Z,16.11
2023-04-19T14:55:22.681Z,16.09
2023-04-19T14:58:09.529Z,16.04
2023-04-19T15:00:56.610Z,16.01
2023-04-19T15:03:43.743Z,15.94
2023-04-19T15:06:30.917Z,15.87
2023-04-19T15:09:18.172Z,15.85
2023-04-19T15:12:05.422Z,15.82
2023-04-19T15:14:52.372Z,15.82
2023-04-19T15:17:39.525Z,15.80
2023-04-19T15:20:27.052Z,15.78
2023-04-19T15:23:14.105Z,15.73
2023-04-19T15:26:00.948Z,15.79
2023-04-19T15:28:48.047Z,15.83
2023-04-19T15:31:34.979Z,15.83
2023-04-19T15:34:22.890Z,15.99
2023-04-19T15:37:09.766Z,16.10
2023-04-19T15:39:57.068Z,16.17
2023-04-19T15:42:43.864Z,16.35
2023-04-19T15:45:31.957Z,16.44
2023-04-19T15:48:18.891Z,16.58
2023-04-19T15:51:06.073Z,16.72
2023-04-19T15:53:52.916Z,16.84
2023-04-19T15:56:39.918Z,16.96
2023-04-19T15:59:26.739Z,17.06
2023-04-19T16:02:13.876Z,17.14
2023-04-19T16:05:00.889Z,17.19
2023-04-19T16:07:48.516Z,17.16
2023-04-19T16:10:35.468Z,17.27
2023-04-19T16:13:25.438Z,17.02
2023-04-19T16:16:12.316Z,17.30
2023-04-19T16:18:59.422Z,17.08
2023-04-19T16:21:46.350Z,17.27
2023-04-19T16:24:33.462Z,17.26
2023-04-19T16:27:21.401Z,17.29
2023-04-19T16:30:08.455Z,17.37
2023-04-19T16:32:55.372Z,17.35
2023-04-19T16:35:42.885Z,17.35
2023-04-19T16:38:29.820Z,17.29
2023-04-19T16:41:16.709Z,17.24
2023-04-19T16:44:03.629Z,17.32
2023-04-19T16:46:50.837Z,17.24
2023-04-19T16:49:37.883Z,17.17
2023-04-19T16:52:25.006Z,17.13
2023-04-19T16:55:11.882Z,17.07
2023-04-19T16:57:58.988Z,17.02
2023-04-19T17:00:45.845Z,16.93
2023-04-19T17:03:33.056Z,16.83
2023-04-19T17:06:21.070Z,16.72
2023-04-19T17:09:08.173Z,16.58
2023-04-19T17:11:55.082Z,16.43
2023-04-19T17:14:42.819Z,16.24
2023-04-19T17:17:29.686Z,15.96
2023-04-19T17:20:16.693Z,15.91
2023-04-19T17:23:03.971Z,15.77
2023-04-19T17:25:50.962Z,15.63
2023-04-19T17:28:37.801Z,15.51
2023-04-19T17:31:24.915Z,15.33
2023-04-19T17:34:11.736Z,15.24
2023-04-19T17:36:58.701Z,15.11
2023-04-19T17:39:45.845Z,14.94
2023-04-19T17:42:32.731Z,14.83
2023-04-19T17:45:19.596Z,14.70
2023-04-19T17:48:06.612Z,13.96
2023-04-19T17:50:53.604Z,14.26
2023-04-19T17:53:40.462Z,14.12
2023-04-19T17:56:27.402Z,14.17
2023-04-19T17:59:14.531Z,14.03
2023-04-19T18:02:01.673Z,13.88
2023-04-19T18:04:48.720Z,13.76
2023-04-19T18:07:35.774Z,13.61
2023-04-19T18:10:22.885Z,13.53
2023-04-19T18:13:09.938Z,13.40
2023-04-19T18:15:56.850Z,12.88
2023-04-19T18:18:43.818Z,13.11
2023-04-19T18:21:30.929Z,13.07
2023-04-19T18:24:17.881Z,12.96
2023-04-19T18:27:04.935Z,12.79
2023-04-19T18:29:51.932Z,12.72
2023-04-19T18:32:39.353Z,12.61
2023-04-19T18:35:27.502Z,12.47
2023-04-19T18:38:14.491Z,12.35
2023-04-19T18:41:01.318Z,12.27
2023-04-19T18:44:06.835Z,12.17
2023-04-19T18:46:55.151Z,12.02
2023-04-19T18:49:46.149Z,11.93
2023-04-19T18:52:44.983Z,11.81
2023-04-19T18:55:32.097Z,11.72
2023-04-19T18:58:18.968Z,11.60
2023-04-19T19:01:06.218Z,11.49
2023-04-19T19:04:23.527Z,11.35
2023-04-19T19:07:10.806Z,11.19
2023-04-19T19:10:16.802Z,11.10
2023-04-19T19:13:05.138Z,10.99
2023-04-19T19:15:51.988Z,10.91
2023-04-19T19:18:38.986Z,10.82
2023-04-19T19:21:28.640Z,10.74
2023-04-19T19:24:15.654Z,10.65
2023-04-19T19:27:02.994Z,10.56
2023-04-19T19:29:50.701Z,10.46
2023-04-19T19:32:37.726Z,10.34
2023-04-19T19:35:25.311Z,10.26
2023-04-19T19:38:12.174Z,10.19
2023-04-19T19:41:39.873Z,10.11
2023-04-19T19:44:06.129Z,10.01
2023-04-19T19:46:53.322Z,9.74
2023-04-19T19:50:02.005Z,9.84
2023-04-19T19:52:48.051Z,9.75
2023-04-19T19:55:35.065Z,9.67
2023-04-19T19:58:46.227Z,9.57
2023-04-19T20:01:28.931Z,9.34
2023-04-19T20:04:15.960Z,9.42
2023-04-19T20:09:52.815Z,9.29
2023-04-19T20:12:39.646Z,9.22
2023-04-19T20:15:27.204Z,9.13
2023-04-19T20:18:14.056Z,9.03
2023-04-19T20:21:01.010Z,8.99
2023-04-19T20:23:47.816Z,8.91
2023-04-19T20:26:34.767Z,8.82
2023-04-19T20:29:22.110Z,8.77
2023-04-19T20:32:09.047Z,8.70
2023-04-19T20:34:55.905Z,8.65
2023-04-19T20:37:42.993Z,8.55
2023-04-19T20:40:34.865Z,8.38
2023-04-19T20:43:21.940Z,8.39
2023-04-19T20:46:08.914Z,8.37
2023-04-19T20:48:56.038Z,8.35
2023-04-19T20:51:42.873Z,8.29
2023-04-19T20:54:30.050Z,8.27
2023-04-19T20:57:20.401Z,7.99
2023-04-19T21:00:07.444Z,8.15
2023-04-19T21:02:54.434Z,8.10
2023-04-19T21:05:41.769Z,8.02
2023-04-19T21:08:28.607Z,7.92
2023-04-19T21:11:15.512Z,7.98
2023-04-19T21:14:02.334Z,7.94
2023-04-19T21:16:49.245Z,7.89
2023-04-19T21:19:36.140Z,7.71
2023-04-19T21:22:23.301Z,7.78
2023-04-19T21:25:10.144Z,7.74
2023-04-19T21:27:57.197Z,7.68
2023-04-19T21:30:44.100Z,7.67
2023-04-19T21:33:31.178Z,7.52
2023-04-19T21:36:18.020Z,7.56
2023-04-19T21:39:05.351Z,7.51
2023-04-19T21:41:52.269Z,7.08
2023-04-19T21:44:39.736Z,7.42
2023-04-19T21:47:27.149Z,7.08
2023-04-19T21:50:14.134Z,7.31
2023-04-19T21:53:00.968Z,7.29
2023-04-19T21:55:48.081Z,7.26
2023-04-19T21:58:35.147Z,7.21
2023-04-19T22:01:22.123Z,7.17
2023-04-19T22:04:09.180Z,7.12
2023-04-19T22:06:56.127Z,7.08
2023-04-19T22:09:43.062Z,7.05
2023-04-19T22:12:30.027Z,6.98
2023-04-19T22:15:16.983Z,6.92
2023-04-19T22:18:03.952Z,6.90
2023-04-19T22:20:50.906Z,6.82
2023-04-19T22:23:37.838Z,6.82
2023-04-19T22:26:25.038Z,6.73
2023-04-19T22:29:12.204Z,6.75
2023-04-19T22:31:59.189Z,6.01
2023-04-19T22:34:46.184Z,6.65
2023-04-19T22:37:33.165Z,6.59
2023-04-19T22:40:20.088Z,6.57
2023-04-19T22:43:07.128Z,6.52
2023-04-19T22:45:54.059Z,6.48
2023-04-19T22:48:41.106Z,6.44
2023-04-19T22:51:28.139Z,6.38
2023-04-19T22:54:15.525Z,6.37
2023-04-19T22:57:02.787Z,6.32
2023-04-19T22:59:49.717Z,6.18
2023-04-19T23:02:36.758Z,6.27
2023-04-19T23:05:24.538Z,6.23
2023-04-19T23:08:11.435Z,6.16
2023-04-19T23:10:58.461Z,6.17
2023-04-19T23:13:45.334Z,6.13
2023-04-19T23:16:32.346Z,6.11
2023-04-19T23:19:19.372Z,6.10
2023-04-19T23:22:06.451Z,6.06
2023-04-19T23:24:53.382Z,6.03
2023-04-19T23:27:40.372Z,6.00
2023-04-19T23:30:27.790Z,5.95
2023-04-19T23:33:14.730Z,5.86
2023-04-19T23:36:01.656Z,5.88
2023-04-19T23:38:48.743Z,5.84
2023-04-19T23:41:35.634Z,5.83
2023-04-19T23:44:22.747Z,5.78
2023-04-19T23:47:09.731Z,5.77
2023-04-19T23:49:56.683Z,5.75
2023-04-19T23:52:43.816Z,5.72
2023-04-19T23:55:30.697Z,5.71
2023-04-19T23:58:17.764Z,5.67
